sensor_id;sensor_type;location;lat;lon;timestamp;temperature;humidity
1992;DHT22;997;48.448;8.924;2022-08-07T03:00:20;16.40;99.90
1992;DHT22;997;48.448;8.924;2022-08-07T03:02:48;16.30;99.90
1992;DHT22;997;48.448;8.924;2022-08-07T03:05:17;16.30;99.90
1992;DHT22;997;48.448;8.924;2022-08-07T03:07:44;16.30;99.90
1992;DHT22;997;48.448;8.924;2022-08-07T03:10:11;16.20;99.90
1992;DHT22;997;48.448;8.924;2022-08-07T03:12:37;16.20;99.90
1992;DHT22;997;48.448;8.924;2022-08-07T03:15:05;16.20;99.90
1992;DHT22;997;48.448;8.924;2022-08-07T03:17:32;16.10;99.90
1992;DHT22;997;48.448;8.924;2022-08-07T03:20:00;16.10;99.90
1992;DHT22;997;48.448;8.924;2022-08-07T03:22:27;15.80;99.90
1992;DHT22;997;48.448;8.924;2022-08-07T03:24:53;15.90;99.90
1992;DHT22;997;48.448;8.924;2022-08-07T03:27:20;15.70;99.90
1992;DHT22;997;48.448;8.924;2022-08-07T03:29:51;15.70;99.90
1992;DHT22;997;48.448;8.924;2022-08-07T03:32:26;15.60;99.90
1992;DHT22;997;48.448;8.924;2022-08-07T03:34:57;15.70;99.90
1992;DHT22;997;48.448;8.924;2022-08-07T03:37:24;15.80;99.90
1992;DHT22;997;48.448;8.924;2022-08-07T03:39:52;15.90;99.90
1992;DHT22;997;48.448;8.924;2022-08-07T03:42:19;16.00;99.90
1992;DHT22;997;48.448;8.924;2022-08-07T03:44:45;16.10;99.90
1992;DHT22;997;48.448;8.924;2022-08-07T03:47:12;16.10;99.90
1992;DHT22;997;48.448;8.924;2022-08-07T03:49:38;16.10;99.90
1992;DHT22;997;48.448;8.924;2022-08-07T03:52:05;16.10;99.90
1992;DHT22;997;48.448;8.924;2022-08-07T03:54:33;16.10;99.90
1992;DHT22;997;48.448;8.924;2022-08-07T03:56:59;16.00;99.90
1992;DHT22;997;48.448;8.924;2022-08-07T03:59:26;16.00;99.90
1992;DHT22;997;48.448;8.924;2022-08-07T04:01:53;15.90;99.90
1992;DHT22;997;48.448;8.924;2022-08-07T04:04:20;15.80;99.90
1992;DHT22;997;48.448;8.924;2022-08-07T04:06:46;15.80;99.90
1992;DHT22;997;48.448;8.924;2022-08-07T04:09:13;15.80;99.90
1992;DHT22;997;48.448;8.924;2022-08-07T04:11:40;15.70;99.90
1992;DHT22;997;48.448;8.924;2022-08-07T04:14:07;15.70;99.90
1992;DHT22;997;48.448;8.924;2022-08-07T04:16:34;15.60;99.90
1992;DHT22;997;48.448;8.924;2022-08-07T04:19:01;15.60;99.90
1992;DHT22;997;48.448;8.924;2022-08-07T04:21:27;15.60;99.90
1992;DHT22;997;48.448;8.924;2022-08-07T04:23:53;15.70;99.90
1992;DHT22;997;48.448;8.924;2022-08-07T04:26:20;15.70;99.90
1992;DHT22;997;48.448;8.924;2022-08-07T04:28:45;15.70;99.90
1992;DHT22;997;48.448;8.924;2022-08-07T04:31:11;15.70;99.90
1992;DHT22;997;48.448;8.924;2022-08-07T04:33:38;15.60;99.90
1992;DHT22;997;48.448;8.924;2022-08-07T04:36:05;15.70;99.90
1992;DHT22;997;48.448;8.924;2022-08-07T04:38:34;15.60;99.90
1992;DHT22;997;48.448;8.924;2022-08-07T04:41:01;15.60;99.90
1992;DHT22;997;48.448;8.924;2022-08-07T04:43:32;15.60;99.90
1992;DHT22;997;48.448;8.924;2022-08-07T04:46:07;15.50;99.90
1992;DHT22;997;48.448;8.924;2022-08-07T05:05:02;15.60;99.90
1992;DHT22;997;48.448;8.924;2022-08-07T05:07:34;15.50;99.90
1992;DHT22;997;48.448;8.924;2022-08-07T05:10:13;15.50;99.90
1992;DHT22;997;48.448;8.924;2022-08-07T05:12:55;15.50;99.90
1992;DHT22;997;48.448;8.924;2022-08-07T05:15:36;15.60;99.90
1992;DHT22;997;48.448;8.924;2022-08-07T05:18:12;15.60;99.90
1992;DHT22;997;48.448;8.924;2022-08-07T05:20:40;15.70;99.90
1992;DHT22;997;48.448;8.924;2022-08-07T05:23:32;15.80;99.90
1992;DHT22;997;48.448;8.924;2022-08-07T05:26:02;15.90;99.90
1992;DHT22;997;48.448;8.924;2022-08-07T05:28:29;15.80;99.90
1992;DHT22;997;48.448;8.924;2022-08-07T05:30:57;15.90;99.90
1992;DHT22;997;48.448;8.924;2022-08-07T05:33:24;15.90;99.90
1992;DHT22;997;48.448;8.924;2022-08-07T05:35:52;15.80;99.90
1992;DHT22;997;48.448;8.924;2022-08-07T05:38:19;15.90;99.90
1992;DHT22;997;48.448;8.924;2022-08-07T05:40:46;16.00;99.90
1992;DHT22;997;48.448;8.924;2022-08-07T05:43:13;16.00;99.90
1992;DHT22;997;48.448;8.924;2022-08-07T05:45:40;16.10;99.90
1992;DHT22;997;48.448;8.924;2022-08-07T05:48:07;16.10;99.90
1992;DHT22;997;48.448;8.924;2022-08-07T05:50:33;16.00;99.90
1992;DHT22;997;48.448;8.924;2022-08-07T05:53:03;15.80;99.90
1992;DHT22;997;48.448;8.924;2022-08-07T05:55:29;15.80;99.90
1992;DHT22;997;48.448;8.924;2022-08-07T05:57:57;15.90;99.90
1992;DHT22;997;48.448;8.924;2022-08-07T06:00:24;15.90;99.90
1992;DHT22;997;48.448;8.924;2022-08-07T06:02:51;15.90;99.90
1992;DHT22;997;48.448;8.924;2022-08-07T06:05:19;16.10;99.90
1992;DHT22;997;48.448;8.924;2022-08-07T06:07:45;16.30;99.90
1992;DHT22;997;48.448;8.924;2022-08-07T06:10:11;16.40;99.90
1992;DHT22;997;48.448;8.924;2022-08-07T06:12:37;16.60;99.90
1992;DHT22;997;48.448;8.924;2022-08-07T06:15:03;16.70;99.90
1992;DHT22;997;48.448;8.924;2022-08-07T06:17:31;16.60;99.90
1992;DHT22;997;48.448;8.924;2022-08-07T06:19:57;16.80;99.90
1992;DHT22;997;48.448;8.924;2022-08-07T06:22:24;16.70;99.90
1992;DHT22;997;48.448;8.924;2022-08-07T06:24:50;16.80;99.90
1992;DHT22;997;48.448;8.924;2022-08-07T06:27:23;16.80;99.90
1992;DHT22;997;48.448;8.924;2022-08-07T06:29:50;16.90;99.90
1992;DHT22;997;48.448;8.924;2022-08-07T06:32:16;17.10;99.90
1992;DHT22;997;48.448;8.924;2022-08-07T06:34:41;17.00;99.90
1992;DHT22;997;48.448;8.924;2022-08-07T06:37:07;17.20;99.90
1992;DHT22;997;48.448;8.924;2022-08-07T06:39:33;17.30;99.90
1992;DHT22;997;48.448;8.924;2022-08-07T06:42:20;17.30;99.90
1992;DHT22;997;48.448;8.924;2022-08-07T06:44:46;17.40;99.90
1992;DHT22;997;48.448;8.924;2022-08-07T06:47:14;17.40;99.90
1992;DHT22;997;48.448;8.924;2022-08-07T06:49:40;17.50;99.90
1992;DHT22;997;48.448;8.924;2022-08-07T06:52:08;17.60;99.90
1992;DHT22;997;48.448;8.924;2022-08-07T06:54:36;17.60;99.90
1992;DHT22;997;48.448;8.924;2022-08-07T06:57:03;17.70;99.90
1992;DHT22;997;48.448;8.924;2022-08-07T06:59:37;17.80;99.90
1992;DHT22;997;48.448;8.924;2022-08-07T07:02:08;17.80;99.90
1992;DHT22;997;48.448;8.924;2022-08-07T07:04:38;17.60;99.90
1992;DHT22;997;48.448;8.924;2022-08-07T07:07:04;17.60;99.90
1992;DHT22;997;48.448;8.924;2022-08-07T07:09:32;17.80;99.90
1992;DHT22;997;48.448;8.924;2022-08-07T07:17:07;18.10;99.90
1992;DHT22;997;48.448;8.924;2022-08-07T07:19:45;18.20;99.90
1992;DHT22;997;48.448;8.924;2022-08-07T07:22:12;18.30;99.90
1992;DHT22;997;48.448;8.924;2022-08-07T07:24:40;18.50;99.90
1992;DHT22;997;48.448;8.924;2022-08-07T07:27:07;18.50;99.90
1992;DHT22;997;48.448;8.924;2022-08-07T07:29:37;18.50;99.90
1992;DHT22;997;48.448;8.924;2022-08-07T07:32:07;18.50;99.90
1992;DHT22;997;48.448;8.924;2022-08-07T07:34:35;18.50;99.90
1992;DHT22;997;48.448;8.924;2022-08-07T07:37:03;18.60;99.90
1992;DHT22;997;48.448;8.924;2022-08-07T07:39:31;18.70;99.90
1992;DHT22;997;48.448;8.924;2022-08-07T07:41:59;19.00;99.90
1992;DHT22;997;48.448;8.924;2022-08-07T07:44:26;19.20;99.90
1992;DHT22;997;48.448;8.924;2022-08-07T07:46:54;19.40;99.90
1992;DHT22;997;48.448;8.924;2022-08-07T07:49:22;19.50;99.90
1992;DHT22;997;48.448;8.924;2022-08-07T07:51:50;19.70;99.90
1992;DHT22;997;48.448;8.924;2022-08-07T07:54:17;19.80;99.90
1992;DHT22;997;48.448;8.924;2022-08-07T07:56:45;19.90;99.90
1992;DHT22;997;48.448;8.924;2022-08-07T07:59:13;20.00;99.90
1992;DHT22;997;48.448;8.924;2022-08-07T08:01:45;20.20;99.90
1992;DHT22;997;48.448;8.924;2022-08-07T08:04:13;20.20;99.90
1992;DHT22;997;48.448;8.924;2022-08-07T08:06:42;20.40;99.90
1992;DHT22;997;48.448;8.924;2022-08-07T08:09:08;20.40;99.90
1992;DHT22;997;48.448;8.924;2022-08-07T08:11:35;20.40;99.90
1992;DHT22;997;48.448;8.924;2022-08-07T08:14:01;20.40;99.90
1992;DHT22;997;48.448;8.924;2022-08-07T08:16:38;20.40;99.90
1992;DHT22;997;48.448;8.924;2022-08-07T08:19:11;20.40;99.90
1992;DHT22;997;48.448;8.924;2022-08-07T08:21:39;20.50;99.90
1992;DHT22;997;48.448;8.924;2022-08-07T08:24:30;20.60;99.90
1992;DHT22;997;48.448;8.924;2022-08-07T08:27:16;20.80;99.90
1992;DHT22;997;48.448;8.924;2022-08-07T08:32:20;21.20;99.90
1992;DHT22;997;48.448;8.924;2022-08-07T08:34:47;21.20;99.90
1992;DHT22;997;48.448;8.924;2022-08-07T08:37:15;21.20;99.90
1992;DHT22;997;48.448;8.924;2022-08-07T08:39:43;21.20;99.90
1992;DHT22;997;48.448;8.924;2022-08-07T08:42:24;21.40;99.90
1992;DHT22;997;48.448;8.924;2022-08-07T08:45:20;21.50;99.90
1992;DHT22;997;48.448;8.924;2022-08-07T08:48:22;21.40;99.90
1992;DHT22;997;48.448;8.924;2022-08-07T08:50:54;21.40;99.90
1992;DHT22;997;48.448;8.924;2022-08-07T08:56:14;21.40;99.90
1992;DHT22;997;48.448;8.924;2022-08-07T08:58:59;21.50;99.90
1992;DHT22;997;48.448;8.924;2022-08-07T09:01:30;21.40;99.90
1992;DHT22;997;48.448;8.924;2022-08-07T09:04:21;21.50;99.90
1992;DHT22;997;48.448;8.924;2022-08-07T09:10:00;21.80;99.90
1992;DHT22;997;48.448;8.924;2022-08-07T09:12:50;22.00;99.90
1992;DHT22;997;48.448;8.924;2022-08-07T09:15:57;22.10;99.90
1992;DHT22;997;48.448;8.924;2022-08-07T09:21:04;22.60;99.90
1992;DHT22;997;48.448;8.924;2022-08-07T09:29:55;23.00;99.90
1992;DHT22;997;48.448;8.924;2022-08-07T09:32:22;23.00;99.90
1992;DHT22;997;48.448;8.924;2022-08-07T09:35:06;22.90;99.90
1992;DHT22;997;48.448;8.924;2022-08-07T09:38:01;22.80;99.90
1992;DHT22;997;48.448;8.924;2022-08-07T09:52:48;23.90;99.90
1992;DHT22;997;48.448;8.924;2022-08-07T09:56:03;24.00;99.90
1992;DHT22;997;48.448;8.924;2022-08-07T10:05:21;23.70;99.90
1992;DHT22;997;48.448;8.924;2022-08-07T10:08:03;23.70;99.90
1992;DHT22;997;48.448;8.924;2022-08-07T10:24:41;24.30;99.90
1992;DHT22;997;48.448;8.924;2022-08-07T10:30:12;24.40;99.90
1992;DHT22;997;48.448;8.924;2022-08-07T10:33:11;24.40;99.90
1992;DHT22;997;48.448;8.924;2022-08-07T10:41:10;24.90;99.90
1992;DHT22;997;48.448;8.924;2022-08-07T10:43:43;25.00;99.90
1992;DHT22;997;48.448;8.924;2022-08-07T10:46:17;25.00;99.90
1992;DHT22;997;48.448;8.924;2022-08-07T10:49:09;25.10;99.90
1992;DHT22;997;48.448;8.924;2022-08-07T10:57:18;25.30;99.90
1992;DHT22;997;48.448;8.924;2022-08-07T11:06:02;25.30;99.90
1992;DHT22;997;48.448;8.924;2022-08-07T11:08:52;25.20;99.90
1992;DHT22;997;48.448;8.924;2022-08-07T11:11:36;25.20;99.90
1992;DHT22;997;48.448;8.924;2022-08-07T11:14:14;25.30;99.90
1992;DHT22;997;48.448;8.924;2022-08-07T11:16:49;25.50;99.90
1992;DHT22;997;48.448;8.924;2022-08-07T11:22:33;25.80;98.90
1992;DHT22;997;48.448;8.924;2022-08-07T11:27:53;26.00;97.40
1992;DHT22;997;48.448;8.924;2022-08-07T11:30:25;25.80;95.90
1992;DHT22;997;48.448;8.924;2022-08-07T11:33:01;25.60;95.90
1992;DHT22;997;48.448;8.924;2022-08-07T11:35:35;25.60;97.00
1992;DHT22;997;48.448;8.924;2022-08-07T11:38:26;25.60;95.80
1992;DHT22;997;48.448;8.924;2022-08-07T11:40:59;25.70;93.30
1992;DHT22;997;48.448;8.924;2022-08-07T11:44:07;25.80;93.20
1992;DHT22;997;48.448;8.924;2022-08-07T11:49:32;26.00;93.40
1992;DHT22;997;48.448;8.924;2022-08-07T11:52:30;26.30;93.20
1992;DHT22;997;48.448;8.924;2022-08-07T11:55:32;26.20;92.20
1992;DHT22;997;48.448;8.924;2022-08-07T11:58:08;26.30;90.80
1992;DHT22;997;48.448;8.924;2022-08-07T12:01:01;26.40;90.60
1992;DHT22;997;48.448;8.924;2022-08-07T12:07:11;26.60;92.80
1992;DHT22;997;48.448;8.924;2022-08-07T12:09:41;26.70;91.00
1992;DHT22;997;48.448;8.924;2022-08-07T12:12:22;26.70;90.00
1992;DHT22;997;48.448;8.924;2022-08-07T12:17:42;26.80;90.20
1992;DHT22;997;48.448;8.924;2022-08-07T12:20:37;26.80;89.80
1992;DHT22;997;48.448;8.924;2022-08-07T12:32:02;27.40;90.20
1992;DHT22;997;48.448;8.924;2022-08-07T12:34:34;27.40;89.50
1992;DHT22;997;48.448;8.924;2022-08-07T12:37:01;27.60;87.20
1992;DHT22;997;48.448;8.924;2022-08-07T12:39:29;27.50;87.80
1992;DHT22;997;48.448;8.924;2022-08-07T12:41:58;27.50;87.60
1992;DHT22;997;48.448;8.924;2022-08-07T12:44:25;27.50;88.30
1992;DHT22;997;48.448;8.924;2022-08-07T12:49:41;27.60;81.60
1992;DHT22;997;48.448;8.924;2022-08-07T12:52:14;27.70;83.40
1992;DHT22;997;48.448;8.924;2022-08-07T12:55:00;27.80;80.70
1992;DHT22;997;48.448;8.924;2022-08-07T12:57:30;27.90;80.50
1992;DHT22;997;48.448;8.924;2022-08-07T12:59:58;27.30;80.30
1992;DHT22;997;48.448;8.924;2022-08-07T13:02:38;27.20;83.60
1992;DHT22;997;48.448;8.924;2022-08-07T13:05:24;27.40;82.80
1992;DHT22;997;48.448;8.924;2022-08-07T13:21:33;28.40;76.50
1992;DHT22;997;48.448;8.924;2022-08-07T13:26:53;28.70;75.40
1992;DHT22;997;48.448;8.924;2022-08-07T13:29:28;28.60;74.80
1992;DHT22;997;48.448;8.924;2022-08-07T13:32:13;28.30;74.80
1992;DHT22;997;48.448;8.924;2022-08-07T13:34:47;28.40;78.00
1992;DHT22;997;48.448;8.924;2022-08-07T13:37:32;28.50;78.10
1992;DHT22;997;48.448;8.924;2022-08-07T13:40:25;28.70;78.00
1992;DHT22;997;48.448;8.924;2022-08-07T13:42:55;28.70;76.60
1992;DHT22;997;48.448;8.924;2022-08-07T13:45:24;28.90;74.20
1992;DHT22;997;48.448;8.924;2022-08-07T13:47:52;28.80;73.50
1992;DHT22;997;48.448;8.924;2022-08-07T13:50:23;29.00;75.30
1992;DHT22;997;48.448;8.924;2022-08-07T13:52:50;29.20;71.80
1992;DHT22;997;48.448;8.924;2022-08-07T13:55:20;29.10;73.90
1992;DHT22;997;48.448;8.924;2022-08-07T13:57:51;29.30;75.50
1992;DHT22;997;48.448;8.924;2022-08-07T14:00:17;29.50;74.40
1992;DHT22;997;48.448;8.924;2022-08-07T14:02:44;29.70;74.10
1992;DHT22;997;48.448;8.924;2022-08-07T14:05:12;30.00;73.60
1992;DHT22;997;48.448;8.924;2022-08-07T14:07:44;30.30;72.20
1992;DHT22;997;48.448;8.924;2022-08-07T14:10:11;30.10;68.80
1992;DHT22;997;48.448;8.924;2022-08-07T14:12:45;29.60;67.50
1992;DHT22;997;48.448;8.924;2022-08-07T14:15:37;29.40;71.20
1992;DHT22;997;48.448;8.924;2022-08-07T14:18:15;29.70;73.50
1992;DHT22;997;48.448;8.924;2022-08-07T14:20:45;29.90;71.20
1992;DHT22;997;48.448;8.924;2022-08-07T14:23:23;30.20;72.00
1992;DHT22;997;48.448;8.924;2022-08-07T14:25:59;30.60;70.70
1992;DHT22;997;48.448;8.924;2022-08-07T14:28:27;30.90;68.40
1992;DHT22;997;48.448;8.924;2022-08-07T14:30:55;31.00;65.00
1992;DHT22;997;48.448;8.924;2022-08-07T14:33:22;31.20;67.30
1992;DHT22;997;48.448;8.924;2022-08-07T14:35:56;31.20;64.10
1992;DHT22;997;48.448;8.924;2022-08-07T14:38:25;31.10;64.40
1992;DHT22;997;48.448;8.924;2022-08-07T14:41:00;31.10;64.50
1992;DHT22;997;48.448;8.924;2022-08-07T14:43:28;31.20;63.70
1992;DHT22;997;48.448;8.924;2022-08-07T14:45:57;31.40;65.70
1992;DHT22;997;48.448;8.924;2022-08-07T14:48:31;31.40;64.30
1992;DHT22;997;48.448;8.924;2022-08-07T14:51:02;31.70;63.40
1992;DHT22;997;48.448;8.924;2022-08-07T14:53:31;32.20;64.90
1992;DHT22;997;48.448;8.924;2022-08-07T14:56:02;32.60;62.50
1992;DHT22;997;48.448;8.924;2022-08-07T14:58:32;32.80;60.10
1992;DHT22;997;48.448;8.924;2022-08-07T15:00:59;32.90;61.60
1992;DHT22;997;48.448;8.924;2022-08-07T15:03:26;33.00;59.80
1992;DHT22;997;48.448;8.924;2022-08-07T15:05:55;33.20;60.10
1992;DHT22;997;48.448;8.924;2022-08-07T15:08:26;33.20;58.30
1992;DHT22;997;48.448;8.924;2022-08-07T15:11:05;33.10;59.80
1992;DHT22;997;48.448;8.924;2022-08-07T15:13:34;33.20;59.00
1992;DHT22;997;48.448;8.924;2022-08-07T15:16:05;33.50;58.50
1992;DHT22;997;48.448;8.924;2022-08-07T15:18:43;33.50;58.70
1992;DHT22;997;48.448;8.924;2022-08-07T15:21:18;33.70;57.50
1992;DHT22;997;48.448;8.924;2022-08-07T15:23:47;33.10;56.50
1992;DHT22;997;48.448;8.924;2022-08-07T15:26:15;33.20;57.70
1992;DHT22;997;48.448;8.924;2022-08-07T15:28:45;33.60;56.50
1992;DHT22;997;48.448;8.924;2022-08-07T15:31:12;34.30;57.70
1992;DHT22;997;48.448;8.924;2022-08-07T15:33:40;34.50;56.10
1992;DHT22;997;48.448;8.924;2022-08-07T15:36:07;34.90;55.60
1992;DHT22;997;48.448;8.924;2022-08-07T15:38:35;35.20;55.80
1992;DHT22;997;48.448;8.924;2022-08-07T15:41:08;35.80;55.40
1992;DHT22;997;48.448;8.924;2022-08-07T15:43:36;36.00;54.30
1992;DHT22;997;48.448;8.924;2022-08-07T15:46:23;35.80;53.20
1992;DHT22;997;48.448;8.924;2022-08-07T15:48:52;35.60;53.50
1992;DHT22;997;48.448;8.924;2022-08-07T15:51:21;36.00;53.80
1992;DHT22;997;48.448;8.924;2022-08-07T15:53:57;35.80;51.80
1992;DHT22;997;48.448;8.924;2022-08-07T15:56:31;35.80;52.20
1992;DHT22;997;48.448;8.924;2022-08-07T15:59:02;36.10;51.40
1992;DHT22;997;48.448;8.924;2022-08-07T16:01:32;36.30;52.00
1992;DHT22;997;48.448;8.924;2022-08-07T16:04:03;36.00;50.80
1992;DHT22;997;48.448;8.924;2022-08-07T16:06:35;35.60;50.60
1992;DHT22;997;48.448;8.924;2022-08-07T16:09:11;35.80;52.00
1992;DHT22;997;48.448;8.924;2022-08-07T16:17:42;34.70;51.10
1992;DHT22;997;48.448;8.924;2022-08-07T16:30:51;34.40;52.00
1992;DHT22;997;48.448;8.924;2022-08-07T16:33:24;34.80;52.10
1992;DHT22;997;48.448;8.924;2022-08-07T16:42:15;35.80;50.00
1992;DHT22;997;48.448;8.924;2022-08-07T16:54:03;34.70;50.60
1992;DHT22;997;48.448;8.924;2022-08-07T16:56:40;35.30;49.20
1992;DHT22;997;48.448;8.924;2022-08-07T17:07:28;36.80;48.50
1992;DHT22;997;48.448;8.924;2022-08-07T17:10:03;36.50;47.10
1992;DHT22;997;48.448;8.924;2022-08-07T17:12:45;36.10;47.20
1992;DHT22;997;48.448;8.924;2022-08-07T17:26:07;31.80;51.00
1992;DHT22;997;48.448;8.924;2022-08-07T17:31:24;30.30;52.50
1992;DHT22;997;48.448;8.924;2022-08-07T17:34:33;29.80;54.00
1992;DHT22;997;48.448;8.924;2022-08-07T17:37:28;29.40;54.00
1992;DHT22;997;48.448;8.924;2022-08-07T17:39:58;29.10;55.00
1992;DHT22;997;48.448;8.924;2022-08-07T17:45:07;28.70;55.10
1992;DHT22;997;48.448;8.924;2022-08-07T17:53:07;28.10;56.30
1992;DHT22;997;48.448;8.924;2022-08-07T18:01:12;27.80;57.10
1992;DHT22;997;48.448;8.924;2022-08-07T18:03:52;27.60;57.00
1992;DHT22;997;48.448;8.924;2022-08-07T18:06:32;27.60;57.40
1992;DHT22;997;48.448;8.924;2022-08-07T18:08:59;27.40;57.40
1992;DHT22;997;48.448;8.924;2022-08-07T18:14:38;27.30;58.20
1992;DHT22;997;48.448;8.924;2022-08-07T18:20:13;27.30;58.50
1992;DHT22;997;48.448;8.924;2022-08-07T18:25:23;27.10;57.70
1992;DHT22;997;48.448;8.924;2022-08-07T18:44:24;26.90;58.40
1992;DHT22;997;48.448;8.924;2022-08-07T18:46:59;26.90;59.00
1992;DHT22;997;48.448;8.924;2022-08-07T18:55:28;26.80;59.30
1992;DHT22;997;48.448;8.924;2022-08-07T19:03:27;26.70;59.70
1992;DHT22;997;48.448;8.924;2022-08-07T19:06:06;26.70;59.40
1992;DHT22;997;48.448;8.924;2022-08-07T19:08:55;26.70;59.30
1992;DHT22;997;48.448;8.924;2022-08-07T19:14:22;26.60;59.30
1992;DHT22;997;48.448;8.924;2022-08-07T19:17:02;26.60;59.30
1992;DHT22;997;48.448;8.924;2022-08-07T19:22:30;26.50;59.70
1992;DHT22;997;48.448;8.924;2022-08-07T19:25:00;26.40;59.40
1992;DHT22;997;48.448;8.924;2022-08-07T19:27:31;26.30;59.20
1992;DHT22;997;48.448;8.924;2022-08-07T19:29:59;26.20;59.50
1992;DHT22;997;48.448;8.924;2022-08-07T19:32:28;26.10;59.40
1992;DHT22;997;48.448;8.924;2022-08-07T19:35:06;26.00;59.20
1992;DHT22;997;48.448;8.924;2022-08-07T19:37:33;25.90;59.60
1992;DHT22;997;48.448;8.924;2022-08-07T19:40:05;25.90;59.70
1992;DHT22;997;48.448;8.924;2022-08-07T19:42:38;25.80;60.00
1992;DHT22;997;48.448;8.924;2022-08-07T19:45:06;25.70;59.50
1992;DHT22;997;48.448;8.924;2022-08-07T19:47:34;25.70;60.10
1992;DHT22;997;48.448;8.924;2022-08-07T19:50:05;25.60;59.40
1992;DHT22;997;48.448;8.924;2022-08-07T19:52:31;25.50;59.70
1992;DHT22;997;48.448;8.924;2022-08-07T19:54:57;25.40;59.90
1992;DHT22;997;48.448;8.924;2022-08-07T19:57:39;25.30;60.70
1992;DHT22;997;48.448;8.924;2022-08-07T20:00:10;25.20;60.40
1992;DHT22;997;48.448;8.924;2022-08-07T20:02:42;25.20;60.80
1992;DHT22;997;48.448;8.924;2022-08-07T20:05:13;25.10;60.60
1992;DHT22;997;48.448;8.924;2022-08-07T20:07:43;24.90;61.30
1992;DHT22;997;48.448;8.924;2022-08-07T20:10:11;24.70;61.40
1992;DHT22;997;48.448;8.924;2022-08-07T20:12:39;24.60;62.60
1992;DHT22;997;48.448;8.924;2022-08-07T20:15:08;24.40;62.30
1992;DHT22;997;48.448;8.924;2022-08-07T20:17:35;24.30;62.00
1992;DHT22;997;48.448;8.924;2022-08-07T20:20:03;24.40;62.50
1992;DHT22;997;48.448;8.924;2022-08-07T20:22:31;24.50;63.40
1992;DHT22;997;48.448;8.924;2022-08-07T20:25:03;24.60;63.60
1992;DHT22;997;48.448;8.924;2022-08-07T20:27:33;24.60;63.40
1992;DHT22;997;48.448;8.924;2022-08-07T20:30:01;24.60;63.50
1992;DHT22;997;48.448;8.924;2022-08-07T20:32:35;24.60;63.30
1992;DHT22;997;48.448;8.924;2022-08-07T20:35:05;24.60;63.50
1992;DHT22;997;48.448;8.924;2022-08-07T20:37:40;24.70;63.70
1992;DHT22;997;48.448;8.924;2022-08-07T20:40:07;24.60;63.80
1992;DHT22;997;48.448;8.924;2022-08-07T20:42:37;24.60;63.40
1992;DHT22;997;48.448;8.924;2022-08-07T20:45:07;24.50;63.10
1992;DHT22;997;48.448;8.924;2022-08-07T20:47:35;24.50;64.10
1992;DHT22;997;48.448;8.924;2022-08-07T20:50:05;24.50;65.00
1992;DHT22;997;48.448;8.924;2022-08-07T20:52:33;24.50;64.90
1992;DHT22;997;48.448;8.924;2022-08-07T20:55:00;24.50;64.90
1992;DHT22;997;48.448;8.924;2022-08-07T20:57:40;24.30;63.50
1992;DHT22;997;48.448;8.924;2022-08-07T21:00:07;24.20;64.10
1992;DHT22;997;48.448;8.924;2022-08-07T21:02:36;24.10;64.00
1992;DHT22;997;48.448;8.924;2022-08-07T21:05:23;24.10;64.20
1992;DHT22;997;48.448;8.924;2022-08-07T21:07:53;23.90;63.00
1992;DHT22;997;48.448;8.924;2022-08-07T21:10:27;23.90;65.40
1992;DHT22;997;48.448;8.924;2022-08-07T21:12:55;23.90;65.60
1992;DHT22;997;48.448;8.924;2022-08-07T21:15:23;23.90;65.40
1992;DHT22;997;48.448;8.924;2022-08-07T21:17:50;23.90;65.70
1992;DHT22;997;48.448;8.924;2022-08-07T21:20:18;23.80;66.30
1992;DHT22;997;48.448;8.924;2022-08-07T21:22:50;23.70;65.40
1992;DHT22;997;48.448;8.924;2022-08-07T21:25:31;23.60;64.50
